sensor_id;sensor_type;location;lat;lon;timestamp;P1;durP1;ratioP1;P2;durP2;ratioP2
7477;SDS011;3780;42.424;25.636;2024-03-06T00:01:02;35.95;;;23.63;;
7477;SDS011;3780;42.424;25.636;2024-03-06T00:03:27;36.65;;;23.40;;
7477;SDS011;3780;42.424;25.636;2024-03-06T00:05:53;31.67;;;23.70;;
7477;SDS011;3780;42.424;25.636;2024-03-06T00:08:18;31.02;;;23.60;;
7477;SDS011;3780;42.424;25.636;2024-03-06T00:10:44;32.25;;;22.73;;
7477;SDS011;3780;42.424;25.636;2024-03-06T00:13:10;33.80;;;23.48;;
7477;SDS011;3780;42.424;25.636;2024-03-06T00:15:35;29.88;;;22.05;;
7477;SDS011;3780;42.424;25.636;2024-03-06T00:18:00;30.40;;;23.63;;
7477;SDS011;3780;42.424;25.636;2024-03-06T00:20:26;28.75;;;21.63;;
7477;SDS011;3780;42.424;25.636;2024-03-06T00:22:52;27.98;;;20.48;;
7477;SDS011;3780;42.424;25.636;2024-03-06T00:25:17;28.17;;;18.77;;
7477;SDS011;3780;42.424;25.636;2024-03-06T00:27:42;27.63;;;17.73;;
7477;SDS011;3780;42.424;25.636;2024-03-06T00:30:08;28.30;;;18.08;;
7477;SDS011;3780;42.424;25.636;2024-03-06T00:32:33;24.10;;;17.30;;
7477;SDS011;3780;42.424;25.636;2024-03-06T00:34:58;26.08;;;18.45;;
7477;SDS011;3780;42.424;25.636;2024-03-06T00:37:24;26.73;;;17.83;;
7477;SDS011;3780;42.424;25.636;2024-03-06T00:39:49;26.02;;;17.25;;
7477;SDS011;3780;42.424;25.636;2024-03-06T00:42:15;26.52;;;17.27;;
7477;SDS011;3780;42.424;25.636;2024-03-06T00:44:40;26.63;;;17.35;;
7477;SDS011;3780;42.424;25.636;2024-03-06T00:47:05;27.20;;;17.75;;
7477;SDS011;3780;42.424;25.636;2024-03-06T00:49:31;21.17;;;16.27;;
7477;SDS011;3780;42.424;25.636;2024-03-06T00:51:56;25.33;;;17.17;;
7477;SDS011;3780;42.424;25.636;2024-03-06T00:54:21;26.85;;;18.60;;
7477;SDS011;3780;42.424;25.636;2024-03-06T00:56:46;24.75;;;18.10;;
7477;SDS011;3780;42.424;25.636;2024-03-06T00:59:12;27.48;;;19.67;;
7477;SDS011;3780;42.424;25.636;2024-03-06T01:01:38;33.08;;;20.30;;
7477;SDS011;3780;42.424;25.636;2024-03-06T01:04:03;31.42;;;20.23;;
7477;SDS011;3780;42.424;25.636;2024-03-06T01:06:28;32.63;;;21.30;;
7477;SDS011;3780;42.424;25.636;2024-03-06T01:08:54;37.30;;;20.40;;
7477;SDS011;3780;42.424;25.636;2024-03-06T01:11:19;30.90;;;19.95;;
7477;SDS011;3780;42.424;25.636;2024-03-06T01:13:45;28.38;;;19.17;;
7477;SDS011;3780;42.424;25.636;2024-03-06T01:16:10;33.10;;;19.10;;
7477;SDS011;3780;42.424;25.636;2024-03-06T01:18:35;25.42;;;19.23;;
7477;SDS011;3780;42.424;25.636;2024-03-06T01:21:01;28.30;;;18.92;;
7477;SDS011;3780;42.424;25.636;2024-03-06T01:23:27;29.90;;;19.73;;
7477;SDS011;3780;42.424;25.636;2024-03-06T01:25:52;29.00;;;19.30;;
7477;SDS011;3780;42.424;25.636;2024-03-06T01:28:18;30.83;;;20.88;;
7477;SDS011;3780;42.424;25.636;2024-03-06T01:30:43;35.17;;;21.05;;
7477;SDS011;3780;42.424;25.636;2024-03-06T01:33:08;30.50;;;19.75;;
7477;SDS011;3780;42.424;25.636;2024-03-06T01:35:34;26.30;;;20.38;;
7477;SDS011;3780;42.424;25.636;2024-03-06T01:38:00;31.52;;;20.70;;
7477;SDS011;3780;42.424;25.636;2024-03-06T01:40:26;27.58;;;20.45;;
7477;SDS011;3780;42.424;25.636;2024-03-06T01:42:52;27.38;;;21.25;;
7477;SDS011;3780;42.424;25.636;2024-03-06T01:45:17;32.17;;;21.65;;
7477;SDS011;3780;42.424;25.636;2024-03-06T01:47:43;31.48;;;20.73;;
7477;SDS011;3780;42.424;25.636;2024-03-06T01:50:08;31.90;;;20.55;;
7477;SDS011;3780;42.424;25.636;2024-03-06T01:52:35;26.77;;;19.02;;
7477;SDS011;3780;42.424;25.636;2024-03-06T01:55:00;26.30;;;19.33;;
7477;SDS011;3780;42.424;25.636;2024-03-06T01:57:26;25.48;;;17.67;;
7477;SDS011;3780;42.424;25.636;2024-03-06T01:59:51;27.98;;;18.52;;
7477;SDS011;3780;42.424;25.636;2024-03-06T02:02:16;27.63;;;18.00;;
7477;SDS011;3780;42.424;25.636;2024-03-06T02:04:42;25.73;;;18.85;;
7477;SDS011;3780;42.424;25.636;2024-03-06T02:07:08;22.92;;;17.45;;
7477;SDS011;3780;42.424;25.636;2024-03-06T02:09:33;25.55;;;17.98;;
7477;SDS011;3780;42.424;25.636;2024-03-06T02:11:59;25.42;;;18.52;;
7477;SDS011;3780;42.424;25.636;2024-03-06T02:14:25;22.33;;;17.73;;
7477;SDS011;3780;42.424;25.636;2024-03-06T02:16:51;24.63;;;18.15;;
7477;SDS011;3780;42.424;25.636;2024-03-06T02:19:16;25.08;;;17.77;;
7477;SDS011;3780;42.424;25.636;2024-03-06T02:21:42;28.88;;;18.65;;
7477;SDS011;3780;42.424;25.636;2024-03-06T02:24:07;25.95;;;18.30;;
7477;SDS011;3780;42.424;25.636;2024-03-06T02:26:36;28.02;;;18.40;;
7477;SDS011;3780;42.424;25.636;2024-03-06T02:29:01;25.05;;;18.20;;
7477;SDS011;3780;42.424;25.636;2024-03-06T02:31:27;25.38;;;18.30;;
7477;SDS011;3780;42.424;25.636;2024-03-06T02:33:52;25.20;;;17.70;;
7477;SDS011;3780;42.424;25.636;2024-03-06T02:36:18;24.33;;;17.17;;
7477;SDS011;3780;42.424;25.636;2024-03-06T02:38:43;24.23;;;17.48;;
7477;SDS011;3780;42.424;25.636;2024-03-06T02:41:09;27.63;;;18.02;;
7477;SDS011;3780;42.424;25.636;2024-03-06T02:43:35;23.35;;;17.80;;
7477;SDS011;3780;42.424;25.636;2024-03-06T02:46:00;24.60;;;18.98;;
7477;SDS011;3780;42.424;25.636;2024-03-06T02:48:26;26.38;;;17.83;;
7477;SDS011;3780;42.424;25.636;2024-03-06T02:50:51;23.25;;;16.88;;
7477;SDS011;3780;42.424;25.636;2024-03-06T02:53:16;25.30;;;17.10;;
7477;SDS011;3780;42.424;25.636;2024-03-06T02:55:42;27.73;;;17.13;;
7477;SDS011;3780;42.424;25.636;2024-03-06T02:58:07;27.77;;;17.48;;
7477;SDS011;3780;42.424;25.636;2024-03-06T03:00:32;22.98;;;16.98;;
7477;SDS011;3780;42.424;25.636;2024-03-06T03:02:58;22.35;;;18.45;;
7477;SDS011;3780;42.424;25.636;2024-03-06T03:05:23;25.63;;;17.65;;
7477;SDS011;3780;42.424;25.636;2024-03-06T03:07:49;23.08;;;17.70;;
7477;SDS011;3780;42.424;25.636;2024-03-06T03:10:14;24.65;;;17.45;;
7477;SDS011;3780;42.424;25.636;2024-03-06T03:12:39;25.27;;;17.60;;
7477;SDS011;3780;42.424;25.636;2024-03-06T03:15:05;24.40;;;17.80;;
7477;SDS011;3780;42.424;25.636;2024-03-06T03:17:31;26.58;;;17.70;;
7477;SDS011;3780;42.424;25.636;2024-03-06T03:19:57;22.88;;;16.63;;
7477;SDS011;3780;42.424;25.636;2024-03-06T03:22:22;27.35;;;17.98;;
7477;SDS011;3780;42.424;25.636;2024-03-06T03:24:47;24.00;;;17.40;;
7477;SDS011;3780;42.424;25.636;2024-03-06T03:27:13;21.10;;;15.95;;
7477;SDS011;3780;42.424;25.636;2024-03-06T03:29:38;25.02;;;17.55;;
7477;SDS011;3780;42.424;25.636;2024-03-06T03:32:04;25.77;;;17.77;;
7477;SDS011;3780;42.424;25.636;2024-03-06T03:34:30;20.15;;;16.17;;
7477;SDS011;3780;42.424;25.636;2024-03-06T03:36:55;22.13;;;16.48;;
7477;SDS011;3780;42.424;25.636;2024-03-06T03:39:21;26.88;;;17.00;;
7477;SDS011;3780;42.424;25.636;2024-03-06T03:41:49;28.65;;;21.75;;
7477;SDS011;3780;42.424;25.636;2024-03-06T03:44:15;28.70;;;20.90;;
7477;SDS011;3780;42.424;25.636;2024-03-06T03:46:40;25.40;;;19.67;;
7477;SDS011;3780;42.424;25.636;2024-03-06T03:49:06;32.80;;;22.13;;
7477;SDS011;3780;42.424;25.636;2024-03-06T03:51:31;27.27;;;21.42;;
7477;SDS011;3780;42.424;25.636;2024-03-06T03:53:56;32.40;;;24.00;;
7477;SDS011;3780;42.424;25.636;2024-03-06T03:56:22;33.03;;;24.45;;
7477;SDS011;3780;42.424;25.636;2024-03-06T03:58:47;32.42;;;23.30;;
7477;SDS011;3780;42.424;25.636;2024-03-06T04:01:12;37.72;;;24.52;;
7477;SDS011;3780;42.424;25.636;2024-03-06T04:03:38;37.38;;;25.00;;
7477;SDS011;3780;42.424;25.636;2024-03-06T04:06:03;35.83;;;25.92;;
7477;SDS011;3780;42.424;25.636;2024-03-06T04:08:29;31.88;;;25.20;;
7477;SDS011;3780;42.424;25.636;2024-03-06T04:10:54;35.00;;;25.73;;
7477;SDS011;3780;42.424;25.636;2024-03-06T04:13:19;37.22;;;25.30;;
7477;SDS011;3780;42.424;25.636;2024-03-06T04:15:46;37.30;;;25.65;;
7477;SDS011;3780;42.424;25.636;2024-03-06T04:18:12;36.72;;;25.17;;
7477;SDS011;3780;42.424;25.636;2024-03-06T04:20:37;38.47;;;24.63;;
7477;SDS011;3780;42.424;25.636;2024-03-06T04:23:02;34.67;;;23.65;;
7477;SDS011;3780;42.424;25.636;2024-03-06T04:25:28;31.10;;;23.80;;
7477;SDS011;3780;42.424;25.636;2024-03-06T04:27:54;39.53;;;25.05;;
7477;SDS011;3780;42.424;25.636;2024-03-06T04:30:19;34.47;;;22.55;;
7477;SDS011;3780;42.424;25.636;2024-03-06T04:32:44;26.60;;;19.02;;
7477;SDS011;3780;42.424;25.636;2024-03-06T04:35:10;22.92;;;16.38;;
7477;SDS011;3780;42.424;25.636;2024-03-06T04:37:35;21.42;;;14.30;;
7477;SDS011;3780;42.424;25.636;2024-03-06T04:40:01;24.13;;;14.82;;
7477;SDS011;3780;42.424;25.636;2024-03-06T04:42:26;27.80;;;16.90;;
7477;SDS011;3780;42.424;25.636;2024-03-06T04:44:51;25.85;;;16.13;;
7477;SDS011;3780;42.424;25.636;2024-03-06T04:47:16;21.83;;;15.85;;
7477;SDS011;3780;42.424;25.636;2024-03-06T04:49:42;25.50;;;16.35;;
7477;SDS011;3780;42.424;25.636;2024-03-06T04:52:07;25.90;;;17.05;;
7477;SDS011;3780;42.424;25.636;2024-03-06T04:54:34;30.35;;;16.23;;
7477;SDS011;3780;42.424;25.636;2024-03-06T04:56:59;22.38;;;15.20;;
7477;SDS011;3780;42.424;25.636;2024-03-06T04:59:24;17.20;;;12.43;;
7477;SDS011;3780;42.424;25.636;2024-03-06T05:01:51;13.23;;;10.88;;
7477;SDS011;3780;42.424;25.636;2024-03-06T05:04:16;17.48;;;11.15;;
7477;SDS011;3780;42.424;25.636;2024-03-06T05:06:42;16.67;;;9.80;;
7477;SDS011;3780;42.424;25.636;2024-03-06T05:09:07;14.77;;;10.30;;
7477;SDS011;3780;42.424;25.636;2024-03-06T05:11:36;12.27;;;9.23;;
7477;SDS011;3780;42.424;25.636;2024-03-06T05:14:02;14.38;;;9.65;;
7477;SDS011;3780;42.424;25.636;2024-03-06T05:16:28;16.50;;;10.23;;
7477;SDS011;3780;42.424;25.636;2024-03-06T05:18:53;17.40;;;10.10;;
7477;SDS011;3780;42.424;25.636;2024-03-06T05:21:19;10.55;;;8.60;;
7477;SDS011;3780;42.424;25.636;2024-03-06T05:23:44;15.02;;;8.18;;
7477;SDS011;3780;42.424;25.636;2024-03-06T05:26:10;15.68;;;7.80;;
7477;SDS011;3780;42.424;25.636;2024-03-06T05:28:35;15.20;;;8.00;;
7477;SDS011;3780;42.424;25.636;2024-03-06T05:31:00;9.70;;;6.78;;
7477;SDS011;3780;42.424;25.636;2024-03-06T05:33:26;17.17;;;7.68;;
7477;SDS011;3780;42.424;25.636;2024-03-06T05:35:53;10.13;;;6.82;;
7477;SDS011;3780;42.424;25.636;2024-03-06T05:38:18;12.05;;;7.95;;
7477;SDS011;3780;42.424;25.636;2024-03-06T05:40:44;11.05;;;8.20;;
7477;SDS011;3780;42.424;25.636;2024-03-06T05:43:10;13.43;;;8.77;;
7477;SDS011;3780;42.424;25.636;2024-03-06T05:45:35;15.40;;;10.45;;
7477;SDS011;3780;42.424;25.636;2024-03-06T05:48:01;31.92;;;20.05;;
7477;SDS011;3780;42.424;25.636;2024-03-06T05:50:26;27.50;;;15.88;;
7477;SDS011;3780;42.424;25.636;2024-03-06T05:52:51;20.20;;;12.88;;
7477;SDS011;3780;42.424;25.636;2024-03-06T05:55:17;10.85;;;8.15;;
7477;SDS011;3780;42.424;25.636;2024-03-06T05:57:42;20.58;;;8.73;;
7477;SDS011;3780;42.424;25.636;2024-03-06T06:00:14;30.92;;;20.95;;
7477;SDS011;3780;42.424;25.636;2024-03-06T06:02:40;9.93;;;7.70;;
7477;SDS011;3780;42.424;25.636;2024-03-06T06:05:05;13.63;;;8.32;;
7477;SDS011;3780;42.424;25.636;2024-03-06T06:07:32;22.58;;;9.25;;
7477;SDS011;3780;42.424;25.636;2024-03-06T06:09:57;11.68;;;7.32;;
7477;SDS011;3780;42.424;25.636;2024-03-06T06:12:22;18.70;;;9.88;;
7477;SDS011;3780;42.424;25.636;2024-03-06T06:14:48;15.30;;;10.07;;
7477;SDS011;3780;42.424;25.636;2024-03-06T06:17:13;13.90;;;9.13;;
7477;SDS011;3780;42.424;25.636;2024-03-06T06:19:41;12.98;;;7.80;;
7477;SDS011;3780;42.424;25.636;2024-03-06T06:22:07;19.42;;;11.68;;
7477;SDS011;3780;42.424;25.636;2024-03-06T06:24:32;15.13;;;10.30;;
7477;SDS011;3780;42.424;25.636;2024-03-06T06:26:57;17.10;;;10.13;;
7477;SDS011;3780;42.424;25.636;2024-03-06T06:29:22;17.48;;;10.13;;
7477;SDS011;3780;42.424;25.636;2024-03-06T06:31:48;20.05;;;10.32;;
7477;SDS011;3780;42.424;25.636;2024-03-06T06:34:13;17.17;;;9.85;;
7477;SDS011;3780;42.424;25.636;2024-03-06T06:36:38;17.15;;;9.27;;
7477;SDS011;3780;42.424;25.636;2024-03-06T06:39:06;16.55;;;11.13;;
7477;SDS011;3780;42.424;25.636;2024-03-06T06:41:31;18.80;;;12.13;;
7477;SDS011;3780;42.424;25.636;2024-03-06T06:43:56;36.72;;;18.60;;
7477;SDS011;3780;42.424;25.636;2024-03-06T06:46:21;34.45;;;18.48;;
7477;SDS011;3780;42.424;25.636;2024-03-06T06:48:47;37.45;;;20.17;;
7477;SDS011;3780;42.424;25.636;2024-03-06T06:51:14;44.65;;;26.67;;
7477;SDS011;3780;42.424;25.636;2024-03-06T06:53:39;48.47;;;27.45;;
7477;SDS011;3780;42.424;25.636;2024-03-06T06:56:06;51.22;;;29.83;;
7477;SDS011;3780;42.424;25.636;2024-03-06T06:58:33;45.40;;;28.70;;
7477;SDS011;3780;42.424;25.636;2024-03-06T07:00:58;40.05;;;28.25;;
7477;SDS011;3780;42.424;25.636;2024-03-06T07:03:23;38.63;;;27.33;;
7477;SDS011;3780;42.424;25.636;2024-03-06T07:05:54;41.60;;;29.55;;
7477;SDS011;3780;42.424;25.636;2024-03-06T07:08:20;44.28;;;32.17;;
7477;SDS011;3780;42.424;25.636;2024-03-06T07:10:46;50.45;;;34.28;;
7477;SDS011;3780;42.424;25.636;2024-03-06T07:13:11;75.78;;;44.25;;
7477;SDS011;3780;42.424;25.636;2024-03-06T07:15:36;48.78;;;36.90;;
7477;SDS011;3780;42.424;25.636;2024-03-06T07:18:01;51.33;;;31.55;;
7477;SDS011;3780;42.424;25.636;2024-03-06T07:20:28;65.15;;;41.38;;
7477;SDS011;3780;42.424;25.636;2024-03-06T07:22:54;40.75;;;30.60;;
7477;SDS011;3780;42.424;25.636;2024-03-06T07:25:19;47.92;;;32.08;;
7477;SDS011;3780;42.424;25.636;2024-03-06T07:27:45;60.60;;;39.55;;
7477;SDS011;3780;42.424;25.636;2024-03-06T07:30:10;48.40;;;33.25;;
7477;SDS011;3780;42.424;25.636;2024-03-06T07:32:36;48.78;;;34.17;;
7477;SDS011;3780;42.424;25.636;2024-03-06T07:35:01;53.53;;;39.30;;
7477;SDS011;3780;42.424;25.636;2024-03-06T07:37:26;34.47;;;27.85;;
7477;SDS011;3780;42.424;25.636;2024-03-06T07:39:52;38.70;;;27.65;;
7477;SDS011;3780;42.424;25.636;2024-03-06T07:42:17;29.75;;;23.13;;
7477;SDS011;3780;42.424;25.636;2024-03-06T07:44:43;24.65;;;18.35;;
7477;SDS011;3780;42.424;25.636;2024-03-06T07:47:08;26.63;;;18.08;;
7477;SDS011;3780;42.424;25.636;2024-03-06T07:49:34;30.80;;;23.40;;
7477;SDS011;3780;42.424;25.636;2024-03-06T07:51:59;33.15;;;21.90;;
7477;SDS011;3780;42.424;25.636;2024-03-06T07:54:25;21.83;;;16.75;;
7477;SDS011;3780;42.424;25.636;2024-03-06T07:56:50;22.83;;;15.82;;
7477;SDS011;3780;42.424;25.636;2024-03-06T07:59:16;22.63;;;16.65;;
7477;SDS011;3780;42.424;25.636;2024-03-06T08:01:43;23.10;;;16.10;;
7477;SDS011;3780;42.424;25.636;2024-03-06T08:04:08;25.52;;;16.58;;
7477;SDS011;3780;42.424;25.636;2024-03-06T08:06:33;23.67;;;18.65;;
7477;SDS011;3780;42.424;25.636;2024-03-06T08:09:02;22.05;;;16.42;;
7477;SDS011;3780;42.424;25.636;2024-03-06T08:11:27;24.73;;;18.30;;
7477;SDS011;3780;42.424;25.636;2024-03-06T08:13:59;30.05;;;20.05;;
7477;SDS011;3780;42.424;25.636;2024-03-06T08:16:24;28.87;;;18.70;;
7477;SDS011;3780;42.424;25.636;2024-03-06T08:18:50;39.80;;;30.60;;
7477;SDS011;3780;42.424;25.636;2024-03-06T08:21:15;56.22;;;39.28;;
7477;SDS011;3780;42.424;25.636;2024-03-06T08:23:40;28.60;;;20.42;;
7477;SDS011;3780;42.424;25.636;2024-03-06T08:26:06;25.02;;;15.70;;
7477;SDS011;3780;42.424;25.636;2024-03-06T08:28:31;25.95;;;19.00;;
7477;SDS011;3780;42.424;25.636;2024-03-06T08:30:56;33.22;;;20.83;;
7477;SDS011;3780;42.424;25.636;2024-03-06T08:33:22;36.50;;;20.77;;
7477;SDS011;3780;42.424;25.636;2024-03-06T08:35:47;29.52;;;19.33;;
7477;SDS011;3780;42.424;25.636;2024-03-06T08:38:13;34.70;;;20.20;;
7477;SDS011;3780;42.424;25.636;2024-03-06T08:40:38;25.38;;;17.38;;
7477;SDS011;3780;42.424;25.636;2024-03-06T08:43:04;24.73;;;15.65;;
7477;SDS011;3780;42.424;25.636;2024-03-06T08:45:29;26.52;;;15.98;;
7477;SDS011;3780;42.424;25.636;2024-03-06T08:47:54;26.27;;;16.85;;
7477;SDS011;3780;42.424;25.636;2024-03-06T08:50:20;20.15;;;13.15;;
7477;SDS011;3780;42.424;25.636;2024-03-06T08:52:45;20.50;;;12.85;;
7477;SDS011;3780;42.424;25.636;2024-03-06T08:55:11;21.10;;;10.20;;
7477;SDS011;3780;42.424;25.636;2024-03-06T08:57:36;17.20;;;10.98;;
7477;SDS011;3780;42.424;25.636;2024-03-06T09:00:02;21.17;;;11.45;;
7477;SDS011;3780;42.424;25.636;2024-03-06T09:02:28;18.30;;;11.20;;
7477;SDS011;3780;42.424;25.636;2024-03-06T09:04:53;13.90;;;9.35;;
7477;SDS011;3780;42.424;25.636;2024-03-06T09:07:19;15.48;;;9.65;;
7477;SDS011;3780;42.424;25.636;2024-03-06T09:09:45;17.25;;;9.48;;
7477;SDS011;3780;42.424;25.636;2024-03-06T09:12:10;22.08;;;14.15;;
7477;SDS011;3780;42.424;25.636;2024-03-06T09:14:36;25.58;;;15.50;;
7477;SDS011;3780;42.424;25.636;2024-03-06T09:17:02;23.75;;;15.43;;
7477;SDS011;3780;42.424;25.636;2024-03-06T09:19:27;36.33;;;21.90;;
7477;SDS011;3780;42.424;25.636;2024-03-06T09:21:53;15.63;;;12.35;;
7477;SDS011;3780;42.424;25.636;2024-03-06T09:24:19;18.95;;;12.00;;
7477;SDS011;3780;42.424;25.636;2024-03-06T09:26:45;19.45;;;13.88;;
7477;SDS011;3780;42.424;25.636;2024-03-06T09:29:10;20.15;;;12.85;;
7477;SDS011;3780;42.424;25.636;2024-03-06T09:31:35;20.52;;;12.73;;
7477;SDS011;3780;42.424;25.636;2024-03-06T09:34:02;24.55;;;12.88;;
7477;SDS011;3780;42.424;25.636;2024-03-06T09:36:27;20.58;;;13.10;;
7477;SDS011;3780;42.424;25.636;2024-03-06T09:38:52;19.13;;;12.25;;
7477;SDS011;3780;42.424;25.636;2024-03-06T09:41:17;20.13;;;12.45;;
7477;SDS011;3780;42.424;25.636;2024-03-06T09:43:43;18.13;;;10.98;;
7477;SDS011;3780;42.424;25.636;2024-03-06T09:46:09;16.23;;;10.40;;
7477;SDS011;3780;42.424;25.636;2024-03-06T09:48:35;17.63;;;13.02;;
7477;SDS011;3780;42.424;25.636;2024-03-06T09:51:01;22.08;;;11.93;;
7477;SDS011;3780;42.424;25.636;2024-03-06T09:53:27;18.50;;;12.38;;
7477;SDS011;3780;42.424;25.636;2024-03-06T09:55:53;14.65;;;9.40;;
7477;SDS011;3780;42.424;25.636;2024-03-06T09:58:19;17.38;;;13.07;;
7477;SDS011;3780;42.424;25.636;2024-03-06T10:00:44;13.13;;;9.10;;
7477;SDS011;3780;42.424;25.636;2024-03-06T10:03:12;15.82;;;9.07;;
7477;SDS011;3780;42.424;25.636;2024-03-06T10:05:38;13.15;;;8.85;;
7477;SDS011;3780;42.424;25.636;2024-03-06T10:08:03;12.63;;;9.25;;
7477;SDS011;3780;42.424;25.636;2024-03-06T10:10:29;13.57;;;8.15;;
7477;SDS011;3780;42.424;25.636;2024-03-06T10:12:55;12.55;;;8.48;;
7477;SDS011;3780;42.424;25.636;2024-03-06T10:15:22;13.43;;;7.93;;
7477;SDS011;3780;42.424;25.636;2024-03-06T10:17:47;11.68;;;8.02;;
7477;SDS011;3780;42.424;25.636;2024-03-06T10:20:23;11.55;;;8.00;;
7477;SDS011;3780;42.424;25.636;2024-03-06T10:22:52;11.27;;;6.50;;
7477;SDS011;3780;42.424;25.636;2024-03-06T10:25:18;8.15;;;5.45;;
7477;SDS011;3780;42.424;25.636;2024-03-06T10:27:44;10.20;;;6.43;;
7477;SDS011;3780;42.424;25.636;2024-03-06T10:30:09;9.75;;;7.63;;
7477;SDS011;3780;42.424;25.636;2024-03-06T10:32:37;9.63;;;5.72;;
7477;SDS011;3780;42.424;25.636;2024-03-06T10:35:03;8.63;;;5.55;;
7477;SDS011;3780;42.424;25.636;2024-03-06T10:37:31;7.28;;;5.10;;
7477;SDS011;3780;42.424;25.636;2024-03-06T10:39:59;7.30;;;6.07;;
7477;SDS011;3780;42.424;25.636;2024-03-06T10:42:30;9.00;;;5.40;;
7477;SDS011;3780;42.424;25.636;2024-03-06T10:44:55;8.10;;;5.75;;
7477;SDS011;3780;42.424;25.636;2024-03-06T10:47:24;11.45;;;5.45;;
7477;SDS011;3780;42.424;25.636;2024-03-06T10:49:51;12.00;;;6.65;;
7477;SDS011;3780;42.424;25.636;2024-03-06T10:52:18;13.38;;;6.57;;
7477;SDS011;3780;42.424;25.636;2024-03-06T10:54:44;11.18;;;6.55;;
7477;SDS011;3780;42.424;25.636;2024-03-06T10:57:11;13.25;;;8.25;;
7477;SDS011;3780;42.424;25.636;2024-03-06T10:59:37;11.90;;;8.02;;
7477;SDS011;3780;42.424;25.636;2024-03-06T11:02:02;12.27;;;8.75;;
7477;SDS011;3780;42.424;25.636;2024-03-06T11:04:28;7.95;;;6.22;;
7477;SDS011;3780;42.424;25.636;2024-03-06T11:06:55;8.82;;;6.68;;
7477;SDS011;3780;42.424;25.636;2024-03-06T11:09:21;11.00;;;7.63;;
7477;SDS011;3780;42.424;25.636;2024-03-06T11:11:49;8.73;;;5.82;;
7477;SDS011;3780;42.424;25.636;2024-03-06T11:14:16;5.88;;;5.10;;
7477;SDS011;3780;42.424;25.636;2024-03-06T11:19:25;9.07;;;6.70;;
7477;SDS011;3780;42.424;25.636;2024-03-06T11:21:50;8.13;;;5.57;;
7477;SDS011;3780;42.424;25.636;2024-03-06T11:24:19;7.75;;;5.55;;
7477;SDS011;3780;42.424;25.636;2024-03-06T11:29:15;10.75;;;5.38;;
7477;SDS011;3780;42.424;25.636;2024-03-06T11:31:55;14.93;;;7.95;;
7477;SDS011;3780;42.424;25.636;2024-03-06T11:34:21;10.77;;;7.38;;
7477;SDS011;3780;42.424;25.636;2024-03-06T11:36:47;20.10;;;9.15;;
7477;SDS011;3780;42.424;25.636;2024-03-06T11:39:12;10.65;;;7.47;;
7477;SDS011;3780;42.424;25.636;2024-03-06T11:44:17;11.88;;;5.55;;
7477;SDS011;3780;42.424;25.636;2024-03-06T11:49:44;13.30;;;5.40;;
7477;SDS011;3780;42.424;25.636;2024-03-06T11:59:26;19.93;;;6.60;;
7477;SDS011;3780;42.424;25.636;2024-03-06T12:04:18;17.17;;;6.82;;
7477;SDS011;3780;42.424;25.636;2024-03-06T12:06:43;10.13;;;5.95;;
7477;SDS011;3780;42.424;25.636;2024-03-06T12:09:08;7.88;;;5.05;;
7477;SDS011;3780;42.424;25.636;2024-03-06T12:11:36;11.02;;;5.85;;
7477;SDS011;3780;42.424;25.636;2024-03-06T12:14:01;14.45;;;5.82;;
7477;SDS011;3780;42.424;25.636;2024-03-06T12:16:27;12.18;;;5.78;;
7477;SDS011;3780;42.424;25.636;2024-03-06T12:18:55;15.05;;;6.25;;
7477;SDS011;3780;42.424;25.636;2024-03-06T12:21:33;11.85;;;6.15;;
7477;SDS011;3780;42.424;25.636;2024-03-06T12:24:05;7.47;;;4.78;;
7477;SDS011;3780;42.424;25.636;2024-03-06T12:29:03;11.70;;;5.60;;
7477;SDS011;3780;42.424;25.636;2024-03-06T12:31:29;11.02;;;5.45;;
7477;SDS011;3780;42.424;25.636;2024-03-06T12:33:58;10.95;;;5.45;;
7477;SDS011;3780;42.424;25.636;2024-03-06T12:36:24;8.02;;;5.40;;
7477;SDS011;3780;42.424;25.636;2024-03-06T12:39:09;8.82;;;5.28;;
7477;SDS011;3780;42.424;25.636;2024-03-06T12:41:41;10.55;;;5.35;;
7477;SDS011;3780;42.424;25.636;2024-03-06T12:44:06;9.82;;;5.00;;
7477;SDS011;3780;42.424;25.636;2024-03-06T12:46:31;12.35;;;5.57;;
7477;SDS011;3780;42.424;25.636;2024-03-06T12:48:57;5.82;;;4.60;;
7477;SDS011;3780;42.424;25.636;2024-03-06T12:51:22;6.50;;;4.20;;
7477;SDS011;3780;42.424;25.636;2024-03-06T12:53:48;9.82;;;4.88;;
7477;SDS011;3780;42.424;25.636;2024-03-06T12:56:13;9.57;;;4.97;;
7477;SDS011;3780;42.424;25.636;2024-03-06T12:58:38;8.05;;;5.82;;
7477;SDS011;3780;42.424;25.636;2024-03-06T13:01:04;14.77;;;6.13;;
7477;SDS011;3780;42.424;25.636;2024-03-06T13:03:30;8.27;;;5.15;;
7477;SDS011;3780;42.424;25.636;2024-03-06T13:05:56;8.27;;;5.00;;
7477;SDS011;3780;42.424;25.636;2024-03-06T13:08:22;6.95;;;5.43;;
7477;SDS011;3780;42.424;25.636;2024-03-06T13:10:47;8.70;;;5.45;;
7477;SDS011;3780;42.424;25.636;2024-03-06T13:13:12;10.88;;;5.95;;
7477;SDS011;3780;42.424;25.636;2024-03-06T13:15:38;14.38;;;7.63;;
7477;SDS011;3780;42.424;25.636;2024-03-06T13:18:04;14.18;;;8.57;;
7477;SDS011;3780;42.424;25.636;2024-03-06T13:20:29;11.68;;;7.97;;
7477;SDS011;3780;42.424;25.636;2024-03-06T13:22:55;15.68;;;7.97;;
7477;SDS011;3780;42.424;25.636;2024-03-06T13:25:20;11.15;;;8.57;;
7477;SDS011;3780;42.424;25.636;2024-03-06T13:27:45;12.38;;;8.73;;
7477;SDS011;3780;42.424;25.636;2024-03-06T13:30:11;12.00;;;8.07;;
7477;SDS011;3780;42.424;25.636;2024-03-06T13:32:37;13.25;;;7.88;;
7477;SDS011;3780;42.424;25.636;2024-03-06T13:35:02;16.60;;;8.60;;
7477;SDS011;3780;42.424;25.636;2024-03-06T13:37:28;18.10;;;8.95;;
7477;SDS011;3780;42.424;25.636;2024-03-06T13:39:53;12.38;;;8.95;;
7477;SDS011;3780;42.424;25.636;2024-03-06T13:42:23;11.77;;;8.20;;
7477;SDS011;3780;42.424;25.636;2024-03-06T13:44:48;11.00;;;8.15;;
7477;SDS011;3780;42.424;25.636;2024-03-06T13:47:14;12.10;;;8.55;;
7477;SDS011;3780;42.424;25.636;2024-03-06T13:49:41;18.02;;;8.93;;
7477;SDS011;3780;42.424;25.636;2024-03-06T13:52:07;12.45;;;7.88;;
7477;SDS011;3780;42.424;25.636;2024-03-06T13:54:39;11.85;;;8.13;;
7477;SDS011;3780;42.424;25.636;2024-03-06T13:57:05;11.40;;;8.00;;
7477;SDS011;3780;42.424;25.636;2024-03-06T13:59:31;14.75;;;8.63;;
7477;SDS011;3780;42.424;25.636;2024-03-06T14:01:56;12.43;;;8.27;;
7477;SDS011;3780;42.424;25.636;2024-03-06T14:04:21;13.48;;;8.40;;
7477;SDS011;3780;42.424;25.636;2024-03-06T14:06:47;12.55;;;8.75;;
7477;SDS011;3780;42.424;25.636;2024-03-06T14:09:13;12.63;;;9.18;;
7477;SDS011;3780;42.424;25.636;2024-03-06T14:11:39;12.30;;;8.65;;
7477;SDS011;3780;42.424;25.636;2024-03-06T14:14:05;13.93;;;8.98;;
7477;SDS011;3780;42.424;25.636;2024-03-06T14:16:30;15.82;;;9.07;;
7477;SDS011;3780;42.424;25.636;2024-03-06T14:18:56;11.90;;;8.52;;
7477;SDS011;3780;42.424;25.636;2024-03-06T14:21:21;13.75;;;7.95;;
7477;SDS011;3780;42.424;25.636;2024-03-06T14:23:46;14.15;;;8.15;;
7477;SDS011;3780;42.424;25.636;2024-03-06T14:26:12;9.45;;;7.28;;
7477;SDS011;3780;42.424;25.636;2024-03-06T14:28:37;14.57;;;8.05;;
7477;SDS011;3780;42.424;25.636;2024-03-06T14:31:03;11.18;;;8.05;;
7477;SDS011;3780;42.424;25.636;2024-03-06T14:33:28;11.90;;;7.60;;
7477;SDS011;3780;42.424;25.636;2024-03-06T14:35:54;18.98;;;8.45;;
7477;SDS011;3780;42.424;25.636;2024-03-06T14:38:19;9.63;;;7.35;;
7477;SDS011;3780;42.424;25.636;2024-03-06T14:40:45;11.05;;;7.57;;
7477;SDS011;3780;42.424;25.636;2024-03-06T14:43:10;12.15;;;7.00;;
7477;SDS011;3780;42.424;25.636;2024-03-06T14:45:37;11.18;;;7.65;;
7477;SDS011;3780;42.424;25.636;2024-03-06T14:48:07;12.48;;;7.75;;
7477;SDS011;3780;42.424;25.636;2024-03-06T14:50:32;13.07;;;7.22;;
7477;SDS011;3780;42.424;25.636;2024-03-06T14:52:58;11.00;;;7.90;;
7477;SDS011;3780;42.424;25.636;2024-03-06T14:55:23;13.38;;;7.50;;